sensor_id;sensor_type;location;lat;lon;timestamp;pressure;altitude;pressure_sealevel;temperature;humidity
29549;BME280;16487;53.094;8.800;2023-04-25T00:01:35;99456.53;;;7.14;100.00
29549;BME280;16487;53.094;8.800;2023-04-25T00:04:04;99452.47;;;7.06;100.00
29549;BME280;16487;53.094;8.800;2023-04-25T00:06:32;99437.72;;;7.09;100.00
29549;BME280;16487;53.094;8.800;2023-04-25T00:08:59;99434.00;;;7.03;100.00
29549;BME280;16487;53.094;8.800;2023-04-25T00:11:27;99416.47;;;7.06;100.00
29549;BME280;16487;53.094;8.800;2023-04-25T00:13:56;99399.53;;;7.04;100.00
29549;BME280;16487;53.094;8.800;2023-04-25T00:16:23;99391.53;;;7.06;100.00
29549;BME280;16487;53.094;8.800;2023-04-25T00:18:51;99377.38;;;7.04;100.00
29549;BME280;16487;53.094;8.800;2023-04-25T00:21:18;99355.78;;;6.98;100.00
29549;BME280;16487;53.094;8.800;2023-04-25T00:23:46;99339.00;;;6.93;100.00
29549;BME280;16487;53.094;8.800;2023-04-25T00:26:13;99334.56;;;6.95;100.00
29549;BME280;16487;53.094;8.800;2023-04-25T00:28:41;99333.66;;;6.98;100.00
29549;BME280;16487;53.094;8.800;2023-04-25T00:31:10;99347.22;;;7.06;100.00
29549;BME280;16487;53.094;8.800;2023-04-25T00:33:37;99328.88;;;6.99;100.00
29549;BME280;16487;53.094;8.800;2023-04-25T00:36:05;99326.59;;;7.07;100.00
29549;BME280;16487;53.094;8.800;2023-04-25T00:38:33;99332.13;;;7.07;100.00
29549;BME280;16487;53.094;8.800;2023-04-25T00:41:00;99331.53;;;7.03;100.00
29549;BME280;16487;53.094;8.800;2023-04-25T00:43:29;99329.63;;;6.99;100.00
29549;BME280;16487;53.094;8.800;2023-04-25T00:45:57;99333.31;;;6.96;100.00
29549;BME280;16487;53.094;8.800;2023-04-25T00:48:30;99341.69;;;7.06;100.00
29549;BME280;16487;53.094;8.800;2023-04-25T00:50:58;99351.22;;;7.05;100.00
29549;BME280;16487;53.094;8.800;2023-04-25T00:53:27;99343.22;;;7.07;100.00
29549;BME280;16487;53.094;8.800;2023-04-25T00:55:55;99357.25;;;7.12;100.00
29549;BME280;16487;53.094;8.800;2023-04-25T00:58:22;99361.41;;;7.08;100.00
29549;BME280;16487;53.094;8.800;2023-04-25T01:00:51;99368.94;;;7.07;100.00
29549;BME280;16487;53.094;8.800;2023-04-25T01:03:19;99385.09;;;7.09;100.00
29549;BME280;16487;53.094;8.800;2023-04-25T01:05:48;99386.25;;;6.98;100.00
29549;BME280;16487;53.094;8.800;2023-04-25T01:08:16;99397.94;;;6.93;100.00
29549;BME280;16487;53.094;8.800;2023-04-25T01:10:43;99396.44;;;7.02;100.00
29549;BME280;16487;53.094;8.800;2023-04-25T01:13:11;99416.72;;;6.98;100.00
29549;BME280;16487;53.094;8.800;2023-04-25T01:15:38;99428.72;;;6.95;100.00
29549;BME280;16487;53.094;8.800;2023-04-25T01:18:06;99433.59;;;6.91;100.00
29549;BME280;16487;53.094;8.800;2023-04-25T01:20:34;99452.31;;;6.87;100.00
29549;BME280;16487;53.094;8.800;2023-04-25T01:23:03;99453.56;;;6.86;100.00
29549;BME280;16487;53.094;8.800;2023-04-25T01:25:31;99464.19;;;6.88;100.00
29549;BME280;16487;53.094;8.800;2023-04-25T01:27:58;99497.53;;;6.84;100.00
29549;BME280;16487;53.094;8.800;2023-04-25T01:30:27;99508.34;;;6.70;100.00
29549;BME280;16487;53.094;8.800;2023-04-25T01:32:56;99532.03;;;6.71;100.00
29549;BME280;16487;53.094;8.800;2023-04-25T01:35:24;99561.34;;;6.68;100.00
29549;BME280;16487;53.094;8.800;2023-04-25T01:37:53;99575.75;;;6.63;100.00
29549;BME280;16487;53.094;8.800;2023-04-25T01:40:23;99600.56;;;6.67;100.00
29549;BME280;16487;53.094;8.800;2023-04-25T01:42:51;99617.50;;;6.69;100.00
29549;BME280;16487;53.094;8.800;2023-04-25T01:45:20;99648.19;;;6.74;100.00
29549;BME280;16487;53.094;8.800;2023-04-25T01:47:48;99666.31;;;6.75;100.00
29549;BME280;16487;53.094;8.800;2023-04-25T01:50:16;99675.66;;;6.81;100.00
29549;BME280;16487;53.094;8.800;2023-04-25T01:52:44;99676.44;;;6.82;100.00
29549;BME280;16487;53.094;8.800;2023-04-25T01:55:12;99674.22;;;6.77;100.00
29549;BME280;16487;53.094;8.800;2023-04-25T01:57:48;99682.84;;;6.79;100.00
29549;BME280;16487;53.094;8.800;2023-04-25T02:00:16;99684.84;;;6.78;100.00
29549;BME280;16487;53.094;8.800;2023-04-25T02:02:44;99682.19;;;6.75;100.00
29549;BME280;16487;53.094;8.800;2023-04-25T02:05:24;99691.59;;;6.77;100.00
29549;BME280;16487;53.094;8.800;2023-04-25T02:07:52;99705.88;;;6.76;100.00
29549;BME280;16487;53.094;8.800;2023-04-25T02:10:19;99703.88;;;6.64;100.00
29549;BME280;16487;53.094;8.800;2023-04-25T02:13:02;99696.13;;;6.59;100.00
29549;BME280;16487;53.094;8.800;2023-04-25T02:15:50;99677.31;;;6.54;100.00
29549;BME280;16487;53.094;8.800;2023-04-25T02:18:19;99661.03;;;6.56;100.00
29549;BME280;16487;53.094;8.800;2023-04-25T02:20:46;99650.53;;;6.51;100.00
29549;BME280;16487;53.094;8.800;2023-04-25T02:23:14;99641.78;;;6.52;100.00
29549;BME280;16487;53.094;8.800;2023-04-25T02:25:41;99621.94;;;6.41;100.00
29549;BME280;16487;53.094;8.800;2023-04-25T02:28:10;99615.72;;;6.37;100.00
29549;BME280;16487;53.094;8.800;2023-04-25T02:30:37;99601.91;;;6.37;100.00
29549;BME280;16487;53.094;8.800;2023-04-25T02:33:05;99603.13;;;6.36;100.00
29549;BME280;16487;53.094;8.800;2023-04-25T02:35:32;99595.94;;;6.39;100.00
29549;BME280;16487;53.094;8.800;2023-04-25T02:37:59;99604.00;;;6.33;100.00
29549;BME280;16487;53.094;8.800;2023-04-25T02:40:27;99607.13;;;6.35;100.00
29549;BME280;16487;53.094;8.800;2023-04-25T02:42:55;99612.44;;;6.30;100.00
29549;BME280;16487;53.094;8.800;2023-04-25T02:45:24;99629.13;;;6.26;100.00
29549;BME280;16487;53.094;8.800;2023-04-25T02:47:51;99649.69;;;6.25;100.00
29549;BME280;16487;53.094;8.800;2023-04-25T02:50:19;99660.75;;;6.25;100.00
29549;BME280;16487;53.094;8.800;2023-04-25T02:52:46;99675.13;;;6.20;100.00
29549;BME280;16487;53.094;8.800;2023-04-25T02:55:18;99676.81;;;6.18;100.00
29549;BME280;16487;53.094;8.800;2023-04-25T02:57:46;99671.72;;;6.16;100.00
29549;BME280;16487;53.094;8.800;2023-04-25T03:00:21;99680.66;;;6.20;100.00
29549;BME280;16487;53.094;8.800;2023-04-25T03:02:50;99707.69;;;6.29;100.00
29549;BME280;16487;53.094;8.800;2023-04-25T03:05:18;99724.75;;;6.40;100.00
29549;BME280;16487;53.094;8.800;2023-04-25T03:07:46;99762.88;;;6.48;100.00
29549;BME280;16487;53.094;8.800;2023-04-25T03:10:13;99787.78;;;6.48;100.00
29549;BME280;16487;53.094;8.800;2023-04-25T03:12:40;99795.72;;;6.46;100.00
29549;BME280;16487;53.094;8.800;2023-04-25T03:15:08;99809.66;;;6.43;100.00
29549;BME280;16487;53.094;8.800;2023-04-25T03:17:36;99804.03;;;6.46;100.00
29549;BME280;16487;53.094;8.800;2023-04-25T03:20:06;99811.44;;;6.37;100.00
29549;BME280;16487;53.094;8.800;2023-04-25T03:22:34;99804.97;;;6.27;100.00
29549;BME280;16487;53.094;8.800;2023-04-25T03:25:02;99800.66;;;6.26;100.00
29549;BME280;16487;53.094;8.800;2023-04-25T03:27:29;99790.13;;;6.21;100.00
29549;BME280;16487;53.094;8.800;2023-04-25T03:29:56;99773.09;;;6.23;100.00
29549;BME280;16487;53.094;8.800;2023-04-25T03:32:24;99775.16;;;6.19;100.00
29549;BME280;16487;53.094;8.800;2023-04-25T03:34:51;99769.19;;;6.20;100.00
29549;BME280;16487;53.094;8.800;2023-04-25T03:37:20;99776.28;;;6.21;100.00
29549;BME280;16487;53.094;8.800;2023-04-25T03:39:48;99776.28;;;6.21;100.00
29549;BME280;16487;53.094;8.800;2023-04-25T03:42:16;99780.25;;;6.20;100.00
29549;BME280;16487;53.094;8.800;2023-04-25T03:44:44;99785.13;;;6.16;100.00
29549;BME280;16487;53.094;8.800;2023-04-25T03:47:12;99777.03;;;6.09;100.00
29549;BME280;16487;53.094;8.800;2023-04-25T03:49:39;99785.16;;;6.00;100.00
29549;BME280;16487;53.094;8.800;2023-04-25T03:52:07;99790.44;;;5.95;100.00
29549;BME280;16487;53.094;8.800;2023-04-25T03:54:39;99797.81;;;5.85;100.00
29549;BME280;16487;53.094;8.800;2023-04-25T03:57:13;99806.09;;;5.85;100.00
29549;BME280;16487;53.094;8.800;2023-04-25T03:59:42;99823.19;;;5.80;100.00
29549;BME280;16487;53.094;8.800;2023-04-25T04:02:11;99846.84;;;5.81;100.00
29549;BME280;16487;53.094;8.800;2023-04-25T04:04:40;99845.31;;;5.80;100.00
29549;BME280;16487;53.094;8.800;2023-04-25T04:07:09;99860.06;;;5.73;100.00
29549;BME280;16487;53.094;8.800;2023-04-25T04:09:41;99863.78;;;5.67;100.00
29549;BME280;16487;53.094;8.800;2023-04-25T04:12:15;99871.03;;;5.61;100.00
29549;BME280;16487;53.094;8.800;2023-04-25T04:14:42;99864.09;;;5.53;100.00
29549;BME280;16487;53.094;8.800;2023-04-25T04:17:09;99856.09;;;5.58;100.00
29549;BME280;16487;53.094;8.800;2023-04-25T04:19:37;99852.19;;;5.56;100.00
29549;BME280;16487;53.094;8.800;2023-04-25T04:22:09;99843.88;;;5.56;100.00
29549;BME280;16487;53.094;8.800;2023-04-25T04:24:38;99833.72;;;5.53;100.00
29549;BME280;16487;53.094;8.800;2023-04-25T04:27:08;99825.25;;;5.60;100.00
29549;BME280;16487;53.094;8.800;2023-04-25T04:29:39;99844.00;;;5.68;100.00
29549;BME280;16487;53.094;8.800;2023-04-25T04:32:23;99839.94;;;5.73;100.00
29549;BME280;16487;53.094;8.800;2023-04-25T04:34:50;99851.00;;;5.73;100.00
29549;BME280;16487;53.094;8.800;2023-04-25T04:37:18;99859.22;;;5.76;100.00
29549;BME280;16487;53.094;8.800;2023-04-25T04:39:46;99867.75;;;5.82;100.00
29549;BME280;16487;53.094;8.800;2023-04-25T04:42:25;99885.41;;;5.88;100.00
29549;BME280;16487;53.094;8.800;2023-04-25T04:45:03;99892.84;;;5.91;100.00
29549;BME280;16487;53.094;8.800;2023-04-25T04:48:00;99910.66;;;5.90;100.00
29549;BME280;16487;53.094;8.800;2023-04-25T04:50:38;99920.13;;;5.89;100.00
29549;BME280;16487;53.094;8.800;2023-04-25T04:53:28;99957.81;;;5.99;100.00
29549;BME280;16487;53.094;8.800;2023-04-25T04:56:12;99987.13;;;5.97;100.00
29549;BME280;16487;53.094;8.800;2023-04-25T04:58:59;100006.84;;;5.99;100.00
29549;BME280;16487;53.094;8.800;2023-04-25T05:01:59;100020.31;;;5.97;100.00
29549;BME280;16487;53.094;8.800;2023-04-25T05:04:42;100037.16;;;6.02;100.00
29549;BME280;16487;53.094;8.800;2023-04-25T05:07:28;100026.63;;;6.13;100.00
29549;BME280;16487;53.094;8.800;2023-04-25T05:10:14;100031.63;;;6.18;100.00
29549;BME280;16487;53.094;8.800;2023-04-25T05:12:55;100027.41;;;6.14;100.00
29549;BME280;16487;53.094;8.800;2023-04-25T05:15:52;100037.16;;;6.18;100.00
29549;BME280;16487;53.094;8.800;2023-04-25T05:18:31;100032.88;;;6.17;100.00
29549;BME280;16487;53.094;8.800;2023-04-25T05:21:17;100021.72;;;6.21;100.00
29549;BME280;16487;53.094;8.800;2023-04-25T05:24:00;100028.53;;;6.32;100.00
29549;BME280;16487;53.094;8.800;2023-04-25T05:26:46;100053.78;;;6.18;100.00
29549;BME280;16487;53.094;8.800;2023-04-25T05:29:20;100064.25;;;6.11;100.00
29549;BME280;16487;53.094;8.800;2023-04-25T05:32:02;100075.38;;;6.07;100.00
29549;BME280;16487;53.094;8.800;2023-04-25T05:34:30;100085.13;;;5.96;100.00
29549;BME280;16487;53.094;8.800;2023-04-25T05:37:01;100074.75;;;6.00;100.00
29549;BME280;16487;53.094;8.800;2023-04-25T05:39:29;100081.94;;;5.97;100.00
29549;BME280;16487;53.094;8.800;2023-04-25T05:42:14;100073.63;;;5.97;100.00
29549;BME280;16487;53.094;8.800;2023-04-25T05:45:03;100074.47;;;5.94;100.00
29549;BME280;16487;53.094;8.800;2023-04-25T05:47:37;100077.38;;;5.87;100.00
29549;BME280;16487;53.094;8.800;2023-04-25T05:50:28;100069.56;;;5.82;100.00
29549;BME280;16487;53.094;8.800;2023-04-25T05:53:00;100064.53;;;5.77;100.00
29549;BME280;16487;53.094;8.800;2023-04-25T05:55:30;100064.19;;;5.75;100.00
29549;BME280;16487;53.094;8.800;2023-04-25T05:57:59;100051.44;;;5.81;100.00
29549;BME280;16487;53.094;8.800;2023-04-25T06:00:27;100052.56;;;5.83;100.00
29549;BME280;16487;53.094;8.800;2023-04-25T06:02:56;100057.19;;;5.90;100.00
29549;BME280;16487;53.094;8.800;2023-04-25T06:05:23;100049.94;;;5.96;100.00
29549;BME280;16487;53.094;8.800;2023-04-25T06:07:51;100048.59;;;6.04;100.00
29549;BME280;16487;53.094;8.800;2023-04-25T06:10:21;100050.13;;;6.05;100.00
29549;BME280;16487;53.094;8.800;2023-04-25T06:12:48;100054.19;;;6.17;100.00
29549;BME280;16487;53.094;8.800;2023-04-25T06:15:17;100067.13;;;6.23;100.00
29549;BME280;16487;53.094;8.800;2023-04-25T06:17:56;100074.03;;;6.31;100.00
29549;BME280;16487;53.094;8.800;2023-04-25T06:20:23;100096.72;;;6.42;100.00
29549;BME280;16487;53.094;8.800;2023-04-25T06:22:52;100118.34;;;6.47;100.00
29549;BME280;16487;53.094;8.800;2023-04-25T06:25:24;100129.16;;;6.58;100.00
29549;BME280;16487;53.094;8.800;2023-04-25T06:27:51;100151.41;;;6.54;100.00
29549;BME280;16487;53.094;8.800;2023-04-25T06:30:19;100159.34;;;6.68;100.00
29549;BME280;16487;53.094;8.800;2023-04-25T06:32:46;100171.69;;;6.83;100.00
29549;BME280;16487;53.094;8.800;2023-04-25T06:35:15;100218.31;;;6.85;100.00
29549;BME280;16487;53.094;8.800;2023-04-25T06:37:43;100239.38;;;6.98;100.00
29549;BME280;16487;53.094;8.800;2023-04-25T06:40:11;100281.56;;;7.22;100.00
29549;BME280;16487;53.094;8.800;2023-04-25T06:42:38;100335.75;;;7.43;100.00
29549;BME280;16487;53.094;8.800;2023-04-25T06:45:32;100417.66;;;7.63;100.00
29549;BME280;16487;53.094;8.800;2023-04-25T06:47:59;100454.13;;;7.78;100.00
29549;BME280;16487;53.094;8.800;2023-04-25T06:50:29;100511.19;;;7.79;100.00
29549;BME280;16487;53.094;8.800;2023-04-25T06:52:56;100552.59;;;7.89;100.00
29549;BME280;16487;53.094;8.800;2023-04-25T06:55:24;100579.09;;;7.71;100.00
29549;BME280;16487;53.094;8.800;2023-04-25T06:58:07;100583.47;;;7.72;100.00
29549;BME280;16487;53.094;8.800;2023-04-25T07:00:53;100582.75;;;7.87;100.00
29549;BME280;16487;53.094;8.800;2023-04-25T07:03:23;100594.06;;;7.77;100.00
29549;BME280;16487;53.094;8.800;2023-04-25T07:05:57;100600.88;;;7.72;100.00
29549;BME280;16487;53.094;8.800;2023-04-25T07:08:25;100605.16;;;7.77;100.00
29549;BME280;16487;53.094;8.800;2023-04-25T07:10:52;100605.00;;;7.84;100.00
29549;BME280;16487;53.094;8.800;2023-04-25T07:13:20;100616.78;;;7.88;100.00
29549;BME280;16487;53.094;8.800;2023-04-25T07:15:47;100615.38;;;7.99;100.00
29549;BME280;16487;53.094;8.800;2023-04-25T07:18:16;100620.19;;;8.15;100.00
29549;BME280;16487;53.094;8.800;2023-04-25T07:20:44;100624.31;;;8.07;100.00
29549;BME280;16487;53.094;8.800;2023-04-25T07:23:13;100640.66;;;7.85;100.00
29549;BME280;16487;53.094;8.800;2023-04-25T07:25:41;100648.59;;;7.83;100.00
29549;BME280;16487;53.094;8.800;2023-04-25T07:28:09;100659.00;;;7.60;100.00
29549;BME280;16487;53.094;8.800;2023-04-25T07:30:36;100681.06;;;7.44;100.00
29549;BME280;16487;53.094;8.800;2023-04-25T07:33:04;100696.16;;;7.43;100.00
29549;BME280;16487;53.094;8.800;2023-04-25T07:35:31;100698.44;;;7.48;100.00
29549;BME280;16487;53.094;8.800;2023-04-25T07:37:59;100704.84;;;7.64;100.00
29549;BME280;16487;53.094;8.800;2023-04-25T07:40:28;100697.56;;;7.51;100.00
29549;BME280;16487;53.094;8.800;2023-04-25T07:43:01;100682.63;;;7.45;100.00
29549;BME280;16487;53.094;8.800;2023-04-25T07:45:37;100696.66;;;7.57;100.00
29549;BME280;16487;53.094;8.800;2023-04-25T07:48:05;100677.38;;;7.93;100.00
29549;BME280;16487;53.094;8.800;2023-04-25T07:50:36;100698.78;;;8.12;100.00
29549;BME280;16487;53.094;8.800;2023-04-25T07:53:04;100758.03;;;8.45;100.00
29549;BME280;16487;53.094;8.800;2023-04-25T07:55:37;100772.34;;;8.43;100.00
29549;BME280;16487;53.094;8.800;2023-04-25T07:58:10;100821.34;;;8.53;100.00
29549;BME280;16487;53.094;8.800;2023-04-25T08:00:40;100828.72;;;8.60;100.00
29549;BME280;16487;53.094;8.800;2023-04-25T08:03:31;100847.66;;;8.26;100.00
29549;BME280;16487;53.094;8.800;2023-04-25T08:06:00;100845.75;;;8.42;100.00
29549;BME280;16487;53.094;8.800;2023-04-25T08:08:33;100838.22;;;8.62;100.00
29549;BME280;16487;53.094;8.800;2023-04-25T08:11:02;100878.94;;;8.49;100.00
29549;BME280;16487;53.094;8.800;2023-04-25T08:13:30;100890.66;;;8.60;100.00
29549;BME280;16487;53.094;8.800;2023-04-25T08:15:58;100887.94;;;8.57;100.00
29549;BME280;16487;53.094;8.800;2023-04-25T08:18:26;100878.34;;;8.15;100.00
29549;BME280;16487;53.094;8.800;2023-04-25T08:20:53;100821.13;;;7.52;100.00
29549;BME280;16487;53.094;8.800;2023-04-25T08:23:20;100700.13;;;6.65;100.00
29549;BME280;16487;53.094;8.800;2023-04-25T08:26:04;100557.28;;;6.18;100.00
29549;BME280;16487;53.094;8.800;2023-04-25T08:28:34;100521.31;;;6.18;100.00
29549;BME280;16487;53.094;8.800;2023-04-25T08:31:02;100444.78;;;6.35;100.00
29549;BME280;16487;53.094;8.800;2023-04-25T08:33:37;100437.94;;;6.62;100.00
29549;BME280;16487;53.094;8.800;2023-04-25T08:36:21;100468.84;;;6.61;100.00
29549;BME280;16487;53.094;8.800;2023-04-25T08:39:13;100567.72;;;6.60;100.00
29549;BME280;16487;53.094;8.800;2023-04-25T08:41:50;100590.38;;;6.78;100.00
29549;BME280;16487;53.094;8.800;2023-04-25T08:44:17;100637.09;;;6.99;100.00
29549;BME280;16487;53.094;8.800;2023-04-25T08:46:45;100709.75;;;7.11;100.00
29549;BME280;16487;53.094;8.800;2023-04-25T08:49:25;100743.94;;;7.27;100.00
29549;BME280;16487;53.094;8.800;2023-04-25T08:51:53;100767.97;;;7.57;100.00
29549;BME280;16487;53.094;8.800;2023-04-25T08:54:23;100797.63;;;7.83;100.00
29549;BME280;16487;53.094;8.800;2023-04-25T08:57:05;100825.81;;;8.04;100.00
29549;BME280;16487;53.094;8.800;2023-04-25T08:59:32;100837.81;;;7.98;100.00
29549;BME280;16487;53.094;8.800;2023-04-25T09:02:00;100860.41;;;7.96;100.00
29549;BME280;16487;53.094;8.800;2023-04-25T09:04:31;100892.69;;;7.87;100.00
29549;BME280;16487;53.094;8.800;2023-04-25T09:06:59;100903.75;;;7.90;100.00
29549;BME280;16487;53.094;8.800;2023-04-25T09:09:26;100937.00;;;8.17;100.00
29549;BME280;16487;53.094;8.800;2023-04-25T09:11:54;100927.34;;;8.91;100.00
29549;BME280;16487;53.094;8.800;2023-04-25T09:14:25;100968.19;;;9.13;100.00
29549;BME280;16487;53.094;8.800;2023-04-25T09:17:05;101007.47;;;9.35;100.00
29549;BME280;16487;53.094;8.800;2023-04-25T09:19:44;101009.38;;;9.58;100.00
29549;BME280;16487;53.094;8.800;2023-04-25T09:22:30;101030.00;;;10.15;100.00
29549;BME280;16487;53.094;8.800;2023-04-25T09:25:02;101061.72;;;10.02;100.00
29549;BME280;16487;53.094;8.800;2023-04-25T09:27:30;101072.38;;;9.28;100.00
29549;BME280;16487;53.094;8.800;2023-04-25T09:30:08;101072.13;;;9.19;100.00
29549;BME280;16487;53.094;8.800;2023-04-25T09:32:56;101073.53;;;9.08;100.00
29549;BME280;16487;53.094;8.800;2023-04-25T09:35:24;101081.22;;;8.54;100.00
29549;BME280;16487;53.094;8.800;2023-04-25T09:37:52;100979.59;;;7.54;100.00
29549;BME280;16487;53.094;8.800;2023-04-25T09:40:46;100862.75;;;7.25;100.00
29549;BME280;16487;53.094;8.800;2023-04-25T09:43:24;100736.84;;;7.69;100.00
29549;BME280;16487;53.094;8.800;2023-04-25T09:45:54;100687.16;;;7.78;100.00
29549;BME280;16487;53.094;8.800;2023-04-25T09:48:27;100687.50;;;8.58;100.00
29549;BME280;16487;53.094;8.800;2023-04-25T09:51:08;100776.03;;;8.37;100.00
29549;BME280;16487;53.094;8.800;2023-04-25T09:53:38;100809.00;;;8.54;100.00
29549;BME280;16487;53.094;8.800;2023-04-25T09:56:18;100855.66;;;9.70;100.00
29549;BME280;16487;53.094;8.800;2023-04-25T09:58:50;100944.38;;;9.84;100.00
29549;BME280;16487;53.094;8.800;2023-04-25T10:01:23;101027.91;;;10.68;100.00
29549;BME280;16487;53.094;8.800;2023-04-25T10:04:04;101132.72;;;11.58;100.00
29549;BME280;16487;53.094;8.800;2023-04-25T10:06:56;101173.66;;;11.32;100.00
29549;BME280;16487;53.094;8.800;2023-04-25T10:09:29;101177.59;;;12.62;100.00
29549;BME280;16487;53.094;8.800;2023-04-25T10:11:59;101197.25;;;13.34;100.00
29549;BME280;16487;53.094;8.800;2023-04-25T10:14:26;101224.34;;;12.20;100.00
29549;BME280;16487;53.094;8.800;2023-04-25T10:16:57;101218.53;;;12.15;100.00
29549;BME280;16487;53.094;8.800;2023-04-25T10:19:25;101216.72;;;12.62;100.00
29549;BME280;16487;53.094;8.800;2023-04-25T10:21:58;101237.34;;;10.86;100.00
29549;BME280;16487;53.094;8.800;2023-04-25T10:24:29;101231.53;;;10.96;100.00
29549;BME280;16487;53.094;8.800;2023-04-25T10:26:57;101254.97;;;10.83;100.00
29549;BME280;16487;53.094;8.800;2023-04-25T10:29:25;101251.66;;;10.13;100.00
29549;BME280;16487;53.094;8.800;2023-04-25T10:31:53;101251.56;;;9.74;100.00
29549;BME280;16487;53.094;8.800;2023-04-25T10:34:37;101253.41;;;9.61;100.00
29549;BME280;16487;53.094;8.800;2023-04-25T10:37:05;101255.44;;;9.34;100.00
29549;BME280;16487;53.094;8.800;2023-04-25T10:39:35;101241.88;;;9.82;100.00
29549;BME280;16487;53.094;8.800;2023-04-25T10:42:03;101228.63;;;9.89;100.00
29549;BME280;16487;53.094;8.800;2023-04-25T10:44:30;101230.84;;;9.98;100.00
29549;BME280;16487;53.094;8.800;2023-04-25T10:46:59;101238.31;;;10.79;100.00
29549;BME280;16487;53.094;8.800;2023-04-25T10:49:32;101238.38;;;11.43;100.00
29549;BME280;16487;53.094;8.800;2023-04-25T10:52:17;101251.00;;;12.09;100.00
29549;BME280;16487;53.094;8.800;2023-04-25T10:54:51;101236.25;;;12.37;100.00
29549;BME280;16487;53.094;8.800;2023-04-25T10:57:37;101289.66;;;11.82;100.00
29549;BME280;16487;53.094;8.800;2023-04-25T11:00:08;101265.75;;;11.32;100.00
29549;BME280;16487;53.094;8.800;2023-04-25T11:02:44;101264.97;;;12.09;100.00
29549;BME280;16487;53.094;8.800;2023-04-25T11:05:22;101246.50;;;12.27;100.00
29549;BME280;16487;53.094;8.800;2023-04-25T11:07:51;101244.72;;;12.87;100.00
29549;BME280;16487;53.094;8.800;2023-04-25T11:10:40;101255.47;;;13.01;100.00
29549;BME280;16487;53.094;8.800;2023-04-25T11:13:07;101274.75;;;12.17;100.00
29549;BME280;16487;53.094;8.800;2023-04-25T11:15:34;101268.88;;;12.94;100.00
29549;BME280;16487;53.094;8.800;2023-04-25T11:18:02;101266.53;;;12.26;100.00
29549;BME280;16487;53.094;8.800;2023-04-25T11:20:31;101275.88;;;12.19;100.00
29549;BME280;16487;53.094;8.800;2023-04-25T11:22:58;101256.22;;;10.62;100.00
29549;BME280;16487;53.094;8.800;2023-04-25T11:25:26;101162.22;;;9.02;100.00
29549;BME280;16487;53.094;8.800;2023-04-25T11:27:54;101110.94;;;8.57;100.00
29549;BME280;16487;53.094;8.800;2023-04-25T11:30:22;101053.97;;;7.92;100.00
29549;BME280;16487;53.094;8.800;2023-04-25T11:32:50;100963.94;;;7.07;100.00
29549;BME280;16487;53.094;8.800;2023-04-25T11:35:18;100843.50;;;6.84;100.00
29549;BME280;16487;53.094;8.800;2023-04-25T11:37:48;100777.69;;;6.35;100.00
29549;BME280;16487;53.094;8.800;2023-04-25T11:40:15;100724.59;;;6.44;100.00
29549;BME280;16487;53.094;8.800;2023-04-25T11:42:44;100694.50;;;6.46;100.00
29549;BME280;16487;53.094;8.800;2023-04-25T11:45:12;100632.03;;;6.71;100.00
29549;BME280;16487;53.094;8.800;2023-04-25T11:47:40;100651.66;;;7.04;100.00
29549;BME280;16487;53.094;8.800;2023-04-25T11:50:09;100670.78;;;7.44;100.00
29549;BME280;16487;53.094;8.800;2023-04-25T11:52:38;100737.44;;;7.80;100.00
29549;BME280;16487;53.094;8.800;2023-04-25T11:55:09;100745.78;;;8.42;100.00
29549;BME280;16487;53.094;8.800;2023-04-25T11:57:39;100855.50;;;8.70;100.00
29549;BME280;16487;53.094;8.800;2023-04-25T12:00:11;100941.75;;;9.05;100.00
29549;BME280;16487;53.094;8.800;2023-04-25T12:02:44;101016.88;;;10.48;100.00
29549;BME280;16487;53.094;8.800;2023-04-25T12:05:14;101093.31;;;9.13;100.00
29549;BME280;16487;53.094;8.800;2023-04-25T12:08:11;101057.34;;;8.03;100.00
29549;BME280;16487;53.094;8.800;2023-04-25T12:10:42;101047.81;;;7.78;100.00
29549;BME280;16487;53.094;8.800;2023-04-25T12:13:23;101019.78;;;7.69;100.00
29549;BME280;16487;53.094;8.800;2023-04-25T12:15:51;101027.88;;;8.13;100.00
29549;BME280;16487;53.094;8.800;2023-04-25T12:18:19;101039.84;;;8.10;100.00
29549;BME280;16487;53.094;8.800;2023-04-25T12:20:47;101109.41;;;8.26;100.00
29549;BME280;16487;53.094;8.800;2023-04-25T12:23:14;101152.47;;;8.41;100.00
29549;BME280;16487;53.094;8.800;2023-04-25T12:25:44;101153.34;;;8.88;100.00
29549;BME280;16487;53.094;8.800;2023-04-25T12:28:13;101168.94;;;10.49;100.00
29549;BME280;16487;53.094;8.800;2023-04-25T12:30:54;101263.47;;;11.60;100.00
29549;BME280;16487;53.094;8.800;2023-04-25T12:33:22;101284.53;;;12.09;100.00
29549;BME280;16487;53.094;8.800;2023-04-25T12:35:50;101312.44;;;12.95;100.00
29549;BME280;16487;53.094;8.800;2023-04-25T12:38:24;101307.22;;;13.47;100.00
29549;BME280;16487;53.094;8.800;2023-04-25T12:40:53;101323.06;;;14.22;100.00
29549;BME280;16487;53.094;8.800;2023-04-25T12:43:22;101336.25;;;12.99;100.00
29549;BME280;16487;53.094;8.800;2023-04-25T12:45:50;101312.69;;;13.25;100.00
29549;BME280;16487;53.094;8.800;2023-04-25T12:48:19;101325.34;;;13.42;100.00
29549;BME280;16487;53.094;8.800;2023-04-25T12:50:49;101328.25;;;13.76;100.00
29549;BME280;16487;53.094;8.800;2023-04-25T12:53:18;101332.59;;;12.61;100.00
29549;BME280;16487;53.094;8.800;2023-04-25T12:55:46;101326.03;;;13.59;100.00
29549;BME280;16487;53.094;8.800;2023-04-25T12:58:15;101319.38;;;14.25;100.00
29549;BME280;16487;53.094;8.800;2023-04-25T13:00:43;101328.09;;;13.80;100.00
29549;BME280;16487;53.094;8.800;2023-04-25T13:03:11;101391.69;;;11.34;100.00
29549;BME280;16487;53.094;8.800;2023-04-25T13:05:38;101389.84;;;9.27;100.00
29549;BME280;16487;53.094;8.800;2023-04-25T13:08:06;101364.00;;;7.92;100.00
29549;BME280;16487;53.094;8.800;2023-04-25T13:10:33;101254.75;;;7.28;100.00
29549;BME280;16487;53.094;8.800;2023-04-25T13:13:01;101134.44;;;7.22;100.00
29549;BME280;16487;53.094;8.800;2023-04-25T13:15:30;101077.34;;;7.28;100.00